sensor_id;sensor_type;location;lat;lon;timestamp;pressure;altitude;pressure_sealevel;temperature;humidity
60479;BME280;46321;48.398;11.754;2024-01-11T00:01:35;97516.13;;;-6.48;nan
60479;BME280;46321;48.398;11.754;2024-01-11T00:04:01;97516.91;;;-6.46;nan
60479;BME280;46321;48.398;11.754;2024-01-11T00:06:26;97522.09;;;-6.47;nan
60479;BME280;46321;48.398;11.754;2024-01-11T00:08:51;97523.66;;;-6.41;nan
60479;BME280;46321;48.398;11.754;2024-01-11T00:11:17;97514.97;;;-6.37;nan
60479;BME280;46321;48.398;11.754;2024-01-11T00:13:42;97518.56;;;-6.43;nan
60479;BME280;46321;48.398;11.754;2024-01-11T00:16:07;97516.25;;;-6.54;nan
60479;BME280;46321;48.398;11.754;2024-01-11T00:18:32;97522.69;;;-6.68;nan
60479;BME280;46321;48.398;11.754;2024-01-11T00:20:57;97514.94;;;-6.68;nan
60479;BME280;46321;48.398;11.754;2024-01-11T00:23:23;97528.50;;;-6.61;nan
60479;BME280;46321;48.398;11.754;2024-01-11T00:25:48;97519.81;;;-6.58;nan
60479;BME280;46321;48.398;11.754;2024-01-11T00:28:13;97516.41;;;-6.59;nan
60479;BME280;46321;48.398;11.754;2024-01-11T00:30:38;97517.25;;;-6.58;nan
60479;BME280;46321;48.398;11.754;2024-01-11T00:33:04;97520.78;;;-6.61;nan
60479;BME280;46321;48.398;11.754;2024-01-11T00:35:29;97523.50;;;-6.67;nan
60479;BME280;46321;48.398;11.754;2024-01-11T00:37:55;97521.56;;;-6.59;nan
60479;BME280;46321;48.398;11.754;2024-01-11T00:40:20;97531.81;;;-6.57;nan
60479;BME280;46321;48.398;11.754;2024-01-11T00:42:45;97514.72;;;-6.60;nan
60479;BME280;46321;48.398;11.754;2024-01-11T00:45:10;97523.19;;;-6.56;nan
60479;BME280;46321;48.398;11.754;2024-01-11T00:47:36;97526.19;;;-6.72;nan
60479;BME280;46321;48.398;11.754;2024-01-11T00:50:01;97532.50;;;-6.82;nan
60479;BME280;46321;48.398;11.754;2024-01-11T00:52:26;97525.28;;;-6.69;nan
60479;BME280;46321;48.398;11.754;2024-01-11T00:54:51;97529.66;;;-6.73;nan
60479;BME280;46321;48.398;11.754;2024-01-11T00:57:17;97526.06;;;-6.65;nan
60479;BME280;46321;48.398;11.754;2024-01-11T00:59:42;97527.66;;;-6.61;nan
60479;BME280;46321;48.398;11.754;2024-01-11T01:02:07;97518.16;;;-6.59;nan
60479;BME280;46321;48.398;11.754;2024-01-11T01:04:33;97528.56;;;-6.64;nan
60479;BME280;46321;48.398;11.754;2024-01-11T01:06:58;97526.06;;;-6.65;nan
60479;BME280;46321;48.398;11.754;2024-01-11T01:09:23;97526.00;;;-6.64;nan
60479;BME280;46321;48.398;11.754;2024-01-11T01:11:48;97521.69;;;-6.63;nan
60479;BME280;46321;48.398;11.754;2024-01-11T01:14:14;97530.13;;;-6.58;nan
60479;BME280;46321;48.398;11.754;2024-01-11T01:16:39;97524.09;;;-6.57;nan
60479;BME280;46321;48.398;11.754;2024-01-11T01:19:04;97524.91;;;-6.55;nan
60479;BME280;46321;48.398;11.754;2024-01-11T01:21:29;97537.94;;;-6.61;nan
60479;BME280;46321;48.398;11.754;2024-01-11T01:23:55;97541.22;;;-6.56;nan
60479;BME280;46321;48.398;11.754;2024-01-11T01:26:20;97545.59;;;-6.58;nan
60479;BME280;46321;48.398;11.754;2024-01-11T01:28:45;97544.75;;;-6.59;nan
60479;BME280;46321;48.398;11.754;2024-01-11T01:31:11;97548.25;;;-6.61;nan
60479;BME280;46321;48.398;11.754;2024-01-11T01:33:37;97542.31;;;-6.63;nan
60479;BME280;46321;48.398;11.754;2024-01-11T01:36:02;97544.84;;;-6.62;nan
60479;BME280;46321;48.398;11.754;2024-01-11T01:38:27;97547.28;;;-6.57;nan
60479;BME280;46321;48.398;11.754;2024-01-11T01:40:52;97545.50;;;-6.55;nan
60479;BME280;46321;48.398;11.754;2024-01-11T01:43:18;97554.03;;;-6.53;nan
60479;BME280;46321;48.398;11.754;2024-01-11T01:45:43;97548.16;;;-6.58;nan
60479;BME280;46321;48.398;11.754;2024-01-11T01:48:08;97546.44;;;-6.58;nan
60479;BME280;46321;48.398;11.754;2024-01-11T01:50:34;97545.38;;;-6.82;nan
60479;BME280;46321;48.398;11.754;2024-01-11T01:52:59;97550.16;;;-6.68;nan
60479;BME280;46321;48.398;11.754;2024-01-11T01:55:26;97546.59;;;-6.64;nan
60479;BME280;46321;48.398;11.754;2024-01-11T01:57:52;97548.09;;;-6.55;nan
60479;BME280;46321;48.398;11.754;2024-01-11T02:00:18;97552.50;;;-6.60;nan
60479;BME280;46321;48.398;11.754;2024-01-11T02:02:44;97547.28;;;-6.57;nan
60479;BME280;46321;48.398;11.754;2024-01-11T02:05:11;97548.44;;;-6.68;nan
60479;BME280;46321;48.398;11.754;2024-01-11T02:07:38;97545.03;;;-6.70;nan
60479;BME280;46321;48.398;11.754;2024-01-11T02:10:04;97541.66;;;-6.72;nan
60479;BME280;46321;48.398;11.754;2024-01-11T02:12:30;97542.78;;;-6.82;nan
60479;BME280;46321;48.398;11.754;2024-01-11T02:14:55;97543.69;;;-6.83;nan
60479;BME280;46321;48.398;11.754;2024-01-11T02:17:21;97541.31;;;-6.91;nan
60479;BME280;46321;48.398;11.754;2024-01-11T02:19:46;97542.34;;;-6.98;nan
60479;BME280;46321;48.398;11.754;2024-01-11T02:22:17;97538.97;;;-7.01;nan
60479;BME280;46321;48.398;11.754;2024-01-11T02:24:44;97546.09;;;-7.10;nan
60479;BME280;46321;48.398;11.754;2024-01-11T02:27:09;97544.22;;;-7.04;nan
60479;BME280;46321;48.398;11.754;2024-01-11T02:29:35;97548.28;;;-6.95;nan
60479;BME280;46321;48.398;11.754;2024-01-11T02:32:02;97550.75;;;-6.92;nan
60479;BME280;46321;48.398;11.754;2024-01-11T02:34:28;97541.50;;;-6.99;nan
60479;BME280;46321;48.398;11.754;2024-01-11T02:36:54;97548.38;;;-6.99;nan
60479;BME280;46321;48.398;11.754;2024-01-11T02:39:32;97547.34;;;-6.92;nan
60479;BME280;46321;48.398;11.754;2024-01-11T02:41:59;97543.13;;;-6.95;nan
60479;BME280;46321;48.398;11.754;2024-01-11T02:44:25;97547.47;;;-6.98;nan
60479;BME280;46321;48.398;11.754;2024-01-11T02:46:50;97549.09;;;-6.94;nan
60479;BME280;46321;48.398;11.754;2024-01-11T02:49:15;97544.78;;;-6.94;nan
60479;BME280;46321;48.398;11.754;2024-01-11T02:51:40;97549.81;;;-6.89;nan
60479;BME280;46321;48.398;11.754;2024-01-11T02:54:06;97543.00;;;-6.90;nan
60479;BME280;46321;48.398;11.754;2024-01-11T02:56:31;97539.47;;;-6.87;nan
60479;BME280;46321;48.398;11.754;2024-01-11T02:58:57;97538.59;;;-6.86;nan
60479;BME280;46321;48.398;11.754;2024-01-11T03:01:22;97532.09;;;-7.00;nan
60479;BME280;46321;48.398;11.754;2024-01-11T03:03:48;97532.03;;;-6.98;nan
60479;BME280;46321;48.398;11.754;2024-01-11T03:06:13;97535.47;;;-6.98;nan
60479;BME280;46321;48.398;11.754;2024-01-11T03:08:39;97535.41;;;-6.95;nan
60479;BME280;46321;48.398;11.754;2024-01-11T03:11:04;97531.00;;;-6.91;nan
60479;BME280;46321;48.398;11.754;2024-01-11T03:13:31;97520.69;;;-6.91;nan
60479;BME280;46321;48.398;11.754;2024-01-11T03:15:56;97519.78;;;-6.88;nan
60479;BME280;46321;48.398;11.754;2024-01-11T03:18:22;97514.00;;;-6.98;nan
60479;BME280;46321;48.398;11.754;2024-01-11T03:20:48;97516.69;;;-7.02;nan
60479;BME280;46321;48.398;11.754;2024-01-11T03:23:13;97509.94;;;-7.07;nan
60479;BME280;46321;48.398;11.754;2024-01-11T03:25:38;97502.13;;;-7.03;nan
60479;BME280;46321;48.398;11.754;2024-01-11T03:28:03;97505.78;;;-7.12;nan
60479;BME280;46321;48.398;11.754;2024-01-11T03:30:29;97510.13;;;-7.14;nan
60479;BME280;46321;48.398;11.754;2024-01-11T03:32:55;97503.19;;;-7.12;nan
60479;BME280;46321;48.398;11.754;2024-01-11T03:35:20;97497.19;;;-7.10;nan
60479;BME280;46321;48.398;11.754;2024-01-11T03:37:46;97494.56;;;-7.09;nan
60479;BME280;46321;48.398;11.754;2024-01-11T03:40:11;97489.47;;;-7.10;nan
60479;BME280;46321;48.398;11.754;2024-01-11T03:42:37;97496.41;;;-7.14;nan
60479;BME280;46321;48.398;11.754;2024-01-11T03:45:03;97492.91;;;-7.12;nan
60479;BME280;46321;48.398;11.754;2024-01-11T03:47:28;97487.69;;;-7.08;nan
60479;BME280;46321;48.398;11.754;2024-01-11T03:49:54;97484.31;;;-7.10;nan
60479;BME280;46321;48.398;11.754;2024-01-11T03:52:19;97496.28;;;-7.09;nan
60479;BME280;46321;48.398;11.754;2024-01-11T03:54:45;97497.88;;;-7.05;nan
60479;BME280;46321;48.398;11.754;2024-01-11T03:57:10;97499.59;;;-7.04;nan
60479;BME280;46321;48.398;11.754;2024-01-11T03:59:36;97496.09;;;-7.03;nan
60479;BME280;46321;48.398;11.754;2024-01-11T04:02:01;97498.56;;;-6.98;nan
60479;BME280;46321;48.398;11.754;2024-01-11T04:04:26;97504.50;;;-6.95;nan
60479;BME280;46321;48.398;11.754;2024-01-11T04:06:51;97503.66;;;-6.95;nan
60479;BME280;46321;48.398;11.754;2024-01-11T04:09:17;97505.31;;;-6.93;nan
60479;BME280;46321;48.398;11.754;2024-01-11T04:11:43;97509.66;;;-6.95;nan
60479;BME280;46321;48.398;11.754;2024-01-11T04:14:08;97507.94;;;-6.96;nan
60479;BME280;46321;48.398;11.754;2024-01-11T04:16:33;97514.69;;;-6.92;nan
60479;BME280;46321;48.398;11.754;2024-01-11T04:18:59;97507.91;;;-6.94;nan
60479;BME280;46321;48.398;11.754;2024-01-11T04:21:26;97516.28;;;-6.86;nan
60479;BME280;46321;48.398;11.754;2024-01-11T04:23:58;97511.31;;;-6.92;nan
60479;BME280;46321;48.398;11.754;2024-01-11T04:26:23;97508.63;;;-6.89;nan
60479;BME280;46321;48.398;11.754;2024-01-11T04:28:49;97506.97;;;-6.92;nan
60479;BME280;46321;48.398;11.754;2024-01-11T04:31:15;97512.94;;;-6.90;nan
60479;BME280;46321;48.398;11.754;2024-01-11T04:33:44;97514.63;;;-6.88;nan
60479;BME280;46321;48.398;11.754;2024-01-11T04:36:10;97519.03;;;-6.92;nan
60479;BME280;46321;48.398;11.754;2024-01-11T04:38:36;97520.63;;;-6.88;nan
60479;BME280;46321;48.398;11.754;2024-01-11T04:41:07;97514.69;;;-6.92;nan
60479;BME280;46321;48.398;11.754;2024-01-11T04:43:32;97508.91;;;-7.00;nan
60479;BME280;46321;48.398;11.754;2024-01-11T04:45:57;97507.31;;;-7.04;nan
60479;BME280;46321;48.398;11.754;2024-01-11T04:48:22;97502.31;;;-7.10;nan
60479;BME280;46321;48.398;11.754;2024-01-11T04:50:48;97497.53;;;-7.25;nan
60479;BME280;46321;48.398;11.754;2024-01-11T04:53:13;97502.66;;;-7.25;nan
60479;BME280;46321;48.398;11.754;2024-01-11T04:55:39;97510.44;;;-7.26;nan
60479;BME280;46321;48.398;11.754;2024-01-11T04:58:04;97519.88;;;-7.27;nan
60479;BME280;46321;48.398;11.754;2024-01-11T05:00:29;97511.31;;;-7.27;nan
60479;BME280;46321;48.398;11.754;2024-01-11T05:02:55;97516.63;;;-7.33;nan
60479;BME280;46321;48.398;11.754;2024-01-11T05:05:20;97525.31;;;-7.38;nan
60479;BME280;46321;48.398;11.754;2024-01-11T05:07:45;97531.47;;;-7.45;nan
60479;BME280;46321;48.398;11.754;2024-01-11T05:10:11;97526.25;;;-7.42;nan
60479;BME280;46321;48.398;11.754;2024-01-11T05:12:36;97514.09;;;-7.37;nan
60479;BME280;46321;48.398;11.754;2024-01-11T05:15:03;97510.81;;;-7.42;nan
60479;BME280;46321;48.398;11.754;2024-01-11T05:17:29;97507.34;;;-7.41;nan
60479;BME280;46321;48.398;11.754;2024-01-11T05:19:54;97502.31;;;-7.44;nan
60479;BME280;46321;48.398;11.754;2024-01-11T05:22:19;97505.97;;;-7.54;nan
60479;BME280;46321;48.398;11.754;2024-01-11T05:24:45;97504.28;;;-7.55;nan
60479;BME280;46321;48.398;11.754;2024-01-11T05:27:10;97506.06;;;-7.57;nan
60479;BME280;46321;48.398;11.754;2024-01-11T05:29:35;97502.59;;;-7.56;nan
60479;BME280;46321;48.398;11.754;2024-01-11T05:32:00;97511.25;;;-7.61;nan
60479;BME280;46321;48.398;11.754;2024-01-11T05:34:26;97514.16;;;-7.75;nan
60479;BME280;46321;48.398;11.754;2024-01-11T05:36:51;97513.44;;;-7.80;nan
60479;BME280;46321;48.398;11.754;2024-01-11T05:39:16;97513.59;;;-7.88;nan
60479;BME280;46321;48.398;11.754;2024-01-11T05:41:45;97512.63;;;-7.82;nan
60479;BME280;46321;48.398;11.754;2024-01-11T05:44:10;97523.00;;;-7.87;nan
60479;BME280;46321;48.398;11.754;2024-01-11T05:46:36;97529.81;;;-7.84;nan
60479;BME280;46321;48.398;11.754;2024-01-11T05:49:01;97534.00;;;-7.80;nan
60479;BME280;46321;48.398;11.754;2024-01-11T05:51:26;97536.56;;;-7.80;nan
60479;BME280;46321;48.398;11.754;2024-01-11T05:53:52;97545.94;;;-7.77;nan
60479;BME280;46321;48.398;11.754;2024-01-11T05:56:18;97550.09;;;-7.72;nan
60479;BME280;46321;48.398;11.754;2024-01-11T05:58:44;97550.16;;;-7.75;nan
60479;BME280;46321;48.398;11.754;2024-01-11T06:01:09;97557.84;;;-7.73;nan
60479;BME280;46321;48.398;11.754;2024-01-11T06:03:34;97544.88;;;-7.68;nan
60479;BME280;46321;48.398;11.754;2024-01-11T06:06:00;97539.75;;;-7.70;nan
60479;BME280;46321;48.398;11.754;2024-01-11T06:08:27;97552.34;;;-7.96;nan
60479;BME280;46321;48.398;11.754;2024-01-11T06:10:52;97543.50;;;-7.84;nan
60479;BME280;46321;48.398;11.754;2024-01-11T06:13:17;97550.25;;;-7.78;nan
60479;BME280;46321;48.398;11.754;2024-01-11T06:15:43;97549.44;;;-7.82;nan
60479;BME280;46321;48.398;11.754;2024-01-11T06:18:09;97558.16;;;-7.87;nan
60479;BME280;46321;48.398;11.754;2024-01-11T06:20:34;97553.84;;;-7.87;nan
60479;BME280;46321;48.398;11.754;2024-01-11T06:22:59;97554.72;;;-7.88;nan
60479;BME280;46321;48.398;11.754;2024-01-11T06:25:24;97569.44;;;-7.95;nan
60479;BME280;46321;48.398;11.754;2024-01-11T06:27:50;97563.53;;;-7.98;nan
60479;BME280;46321;48.398;11.754;2024-01-11T06:30:15;97562.88;;;-8.08;nan
60479;BME280;46321;48.398;11.754;2024-01-11T06:32:40;97570.63;;;-8.10;nan
60479;BME280;46321;48.398;11.754;2024-01-11T06:35:06;97574.84;;;-8.07;nan
60479;BME280;46321;48.398;11.754;2024-01-11T06:37:31;97578.19;;;-8.02;nan
60479;BME280;46321;48.398;11.754;2024-01-11T06:39:57;97568.53;;;-7.92;nan
60479;BME280;46321;48.398;11.754;2024-01-11T06:42:22;97567.56;;;-7.88;nan
60479;BME280;46321;48.398;11.754;2024-01-11T06:44:47;97578.53;;;-7.78;nan
60479;BME280;46321;48.398;11.754;2024-01-11T06:47:13;97578.53;;;-7.79;nan
60479;BME280;46321;48.398;11.754;2024-01-11T06:49:38;97592.22;;;-7.77;nan
60479;BME280;46321;48.398;11.754;2024-01-11T06:52:07;97601.63;;;-7.76;nan
60479;BME280;46321;48.398;11.754;2024-01-11T06:54:32;97601.56;;;-7.73;nan
60479;BME280;46321;48.398;11.754;2024-01-11T06:56:58;97592.00;;;-7.68;nan
60479;BME280;46321;48.398;11.754;2024-01-11T06:59:23;97589.53;;;-7.73;nan
60479;BME280;46321;48.398;11.754;2024-01-11T07:01:48;97581.97;;;-7.79;nan
60479;BME280;46321;48.398;11.754;2024-01-11T07:04:14;97577.72;;;-7.82;nan
60479;BME280;46321;48.398;11.754;2024-01-11T07:06:39;97578.53;;;-7.79;nan
60479;BME280;46321;48.398;11.754;2024-01-11T07:09:04;97571.28;;;-8.00;nan
60479;BME280;46321;48.398;11.754;2024-01-11T07:11:30;97566.00;;;-7.95;nan
60479;BME280;46321;48.398;11.754;2024-01-11T07:13:57;97568.59;;;-7.95;nan
60479;BME280;46321;48.398;11.754;2024-01-11T07:16:22;97572.44;;;-8.15;nan
60479;BME280;46321;48.398;11.754;2024-01-11T07:18:47;97574.22;;;-8.62;nan
60479;BME280;46321;48.398;11.754;2024-01-11T07:21:13;97583.41;;;-8.50;nan
60479;BME280;46321;48.398;11.754;2024-01-11T07:23:38;97595.19;;;-8.39;nan
60479;BME280;46321;48.398;11.754;2024-01-11T07:26:04;97583.88;;;-8.30;nan
60479;BME280;46321;48.398;11.754;2024-01-11T07:28:29;97593.25;;;-8.28;nan
60479;BME280;46321;48.398;11.754;2024-01-11T07:30:54;97599.16;;;-8.22;nan
60479;BME280;46321;48.398;11.754;2024-01-11T07:33:20;97607.59;;;-8.16;nan
60479;BME280;46321;48.398;11.754;2024-01-11T07:35:46;97601.59;;;-8.16;nan
60479;BME280;46321;48.398;11.754;2024-01-11T07:38:11;97597.16;;;-8.09;nan
60479;BME280;46321;48.398;11.754;2024-01-11T07:40:36;97598.75;;;-8.02;nan
60479;BME280;46321;48.398;11.754;2024-01-11T07:43:02;97608.16;;;-8.02;nan
60479;BME280;46321;48.398;11.754;2024-01-11T07:45:29;97604.84;;;-8.08;nan
60479;BME280;46321;48.398;11.754;2024-01-11T07:47:55;97615.84;;;-8.01;nan
60479;BME280;46321;48.398;11.754;2024-01-11T07:50:20;97624.31;;;-7.96;nan
60479;BME280;46321;48.398;11.754;2024-01-11T07:52:45;97632.81;;;-7.92;nan
60479;BME280;46321;48.398;11.754;2024-01-11T07:55:11;97634.34;;;-7.83;nan
60479;BME280;46321;48.398;11.754;2024-01-11T07:57:37;97631.72;;;-7.82;nan
60479;BME280;46321;48.398;11.754;2024-01-11T08:00:04;97637.56;;;-7.73;nan
60479;BME280;46321;48.398;11.754;2024-01-11T08:02:31;97634.06;;;-7.69;nan
60479;BME280;46321;48.398;11.754;2024-01-11T08:04:57;97641.69;;;-7.66;nan
60479;BME280;46321;48.398;11.754;2024-01-11T08:07:23;97642.44;;;-7.61;nan
60479;BME280;46321;48.398;11.754;2024-01-11T08:09:49;97652.56;;;-7.53;nan
60479;BME280;46321;48.398;11.754;2024-01-11T08:12:14;97672.13;;;-7.45;nan
60479;BME280;46321;48.398;11.754;2024-01-11T08:14:40;97679.06;;;-7.49;nan
60479;BME280;46321;48.398;11.754;2024-01-11T08:17:07;97688.38;;;-7.43;nan
60479;BME280;46321;48.398;11.754;2024-01-11T08:19:33;97682.50;;;-7.50;nan
60479;BME280;46321;48.398;11.754;2024-01-11T08:21:59;97668.50;;;-7.37;nan
60479;BME280;46321;48.398;11.754;2024-01-11T08:24:24;97662.41;;;-7.32;nan
60479;BME280;46321;48.398;11.754;2024-01-11T08:26:50;97664.91;;;-7.29;nan
60479;BME280;46321;48.398;11.754;2024-01-11T08:29:15;97668.13;;;-7.19;nan
60479;BME280;46321;48.398;11.754;2024-01-11T08:31:41;97677.50;;;-7.17;nan
60479;BME280;46321;48.398;11.754;2024-01-11T08:34:08;97681.59;;;-7.08;nan
60479;BME280;46321;48.398;11.754;2024-01-11T08:36:35;97678.03;;;-7.02;nan
60479;BME280;46321;48.398;11.754;2024-01-11T08:39:02;97687.16;;;-6.88;nan
60479;BME280;46321;48.398;11.754;2024-01-11T08:41:30;97683.66;;;-6.86;nan
60479;BME280;46321;48.398;11.754;2024-01-11T08:43:56;97687.91;;;-6.85;nan
60479;BME280;46321;48.398;11.754;2024-01-11T08:46:25;97682.88;;;-6.90;nan
60479;BME280;46321;48.398;11.754;2024-01-11T08:48:51;97692.97;;;-6.80;nan
60479;BME280;46321;48.398;11.754;2024-01-11T08:51:16;97682.28;;;-6.64;nan
60479;BME280;46321;48.398;11.754;2024-01-11T08:53:41;97684.47;;;-6.49;nan
60479;BME280;46321;48.398;11.754;2024-01-11T08:56:07;97686.88;;;-6.43;nan
60479;BME280;46321;48.398;11.754;2024-01-11T08:58:32;97679.25;;;-6.46;nan
60479;BME280;46321;48.398;11.754;2024-01-11T09:00:57;97668.31;;;-6.21;nan
60479;BME280;46321;48.398;11.754;2024-01-11T09:03:23;97658.34;;;-5.42;nan
60479;BME280;46321;48.398;11.754;2024-01-11T09:05:49;97655.47;;;-4.00;nan
60479;BME280;46321;48.398;11.754;2024-01-11T09:08:15;97647.78;;;-2.23;nan
60479;BME280;46321;48.398;11.754;2024-01-11T09:10:40;97636.06;;;-1.14;nan
60479;BME280;46321;48.398;11.754;2024-01-11T09:13:06;97648.63;;;-0.16;nan
60479;BME280;46321;48.398;11.754;2024-01-11T09:15:32;97638.75;;;0.57;nan
60479;BME280;46321;48.398;11.754;2024-01-11T09:17:58;97644.91;;;0.40;nan
60479;BME280;46321;48.398;11.754;2024-01-11T09:20:25;97643.28;;;0.37;nan
60479;BME280;46321;48.398;11.754;2024-01-11T09:22:50;97650.94;;;0.40;nan
60479;BME280;46321;48.398;11.754;2024-01-11T09:25:15;97646.56;;;0.07;nan
60479;BME280;46321;48.398;11.754;2024-01-11T09:27:41;97645.94;;;-1.23;nan
60479;BME280;46321;48.398;11.754;2024-01-11T09:30:07;97654.69;;;-2.43;nan
60479;BME280;46321;48.398;11.754;2024-01-11T09:32:32;97657.25;;;-2.64;nan
60479;BME280;46321;48.398;11.754;2024-01-11T09:34:57;97653.97;;;-2.90;nan
60479;BME280;46321;48.398;11.754;2024-01-11T09:37:22;97665.44;;;-3.18;nan
60479;BME280;46321;48.398;11.754;2024-01-11T09:39:48;97673.91;;;-3.37;nan
60479;BME280;46321;48.398;11.754;2024-01-11T09:42:13;97670.06;;;-3.97;nan
60479;BME280;46321;48.398;11.754;2024-01-11T09:44:38;97670.06;;;-3.97;nan
60479;BME280;46321;48.398;11.754;2024-01-11T09:47:06;97664.72;;;-3.93;nan
60479;BME280;46321;48.398;11.754;2024-01-11T09:49:32;97661.25;;;-4.17;nan
60479;BME280;46321;48.398;11.754;2024-01-11T09:51:59;97657.34;;;-4.04;nan
60479;BME280;46321;48.398;11.754;2024-01-11T09:54:26;97652.31;;;-4.08;nan
60479;BME280;46321;48.398;11.754;2024-01-11T09:56:53;97649.19;;;-4.17;nan
60479;BME280;46321;48.398;11.754;2024-01-11T09:59:20;97657.09;;;-4.47;nan
60479;BME280;46321;48.398;11.754;2024-01-11T10:01:47;97655.16;;;-4.67;nan
60479;BME280;46321;48.398;11.754;2024-01-11T10:04:14;97649.56;;;-4.80;nan
60479;BME280;46321;48.398;11.754;2024-01-11T10:06:41;97652.06;;;-5.06;nan
60479;BME280;46321;48.398;11.754;2024-01-11T10:09:06;97648.03;;;-4.86;nan
60479;BME280;46321;48.398;11.754;2024-01-11T10:11:32;97640.50;;;-5.21;nan
60479;BME280;46321;48.398;11.754;2024-01-11T10:13:59;97644.94;;;-4.71;nan
60479;BME280;46321;48.398;11.754;2024-01-11T10:16:27;97640.72;;;-4.73;nan
60479;BME280;46321;48.398;11.754;2024-01-11T10:18:56;97634.91;;;-4.80;nan
60479;BME280;46321;48.398;11.754;2024-01-11T10:21:23;97641.38;;;-4.68;nan
60479;BME280;46321;48.398;11.754;2024-01-11T10:23:50;97645.47;;;-4.61;nan
60479;BME280;46321;48.398;11.754;2024-01-11T10:26:16;97630.81;;;-4.60;nan
60479;BME280;46321;48.398;11.754;2024-01-11T10:28:45;97637.63;;;-4.57;nan
60479;BME280;46321;48.398;11.754;2024-01-11T10:31:11;97641.03;;;-4.57;nan
60479;BME280;46321;48.398;11.754;2024-01-11T10:33:36;97636.06;;;-4.63;nan
60479;BME280;46321;48.398;11.754;2024-01-11T10:36:02;97621.69;;;-4.45;nan
60479;BME280;46321;48.398;11.754;2024-01-11T10:38:30;97627.22;;;-4.30;nan
60479;BME280;46321;48.398;11.754;2024-01-11T10:40:59;97615.94;;;-4.53;nan
60479;BME280;46321;48.398;11.754;2024-01-11T10:43:26;97614.63;;;-4.40;nan
60479;BME280;46321;48.398;11.754;2024-01-11T10:45:53;97625.28;;;-3.99;nan
60479;BME280;46321;48.398;11.754;2024-01-11T10:48:24;97618.47;;;-3.78;nan
60479;BME280;46321;48.398;11.754;2024-01-11T10:50:54;97614.81;;;-3.72;nan
60479;BME280;46321;48.398;11.754;2024-01-11T10:55:53;97610.03;;;-4.07;nan
60479;BME280;46321;48.398;11.754;2024-01-11T10:58:19;97608.88;;;-3.76;nan
60479;BME280;46321;48.398;11.754;2024-01-11T11:00:46;97614.81;;;-3.72;nan
60479;BME280;46321;48.398;11.754;2024-01-11T11:03:14;97622.44;;;-3.45;nan
60479;BME280;46321;48.398;11.754;2024-01-11T11:05:41;97620.72;;;-3.46;nan
60479;BME280;46321;48.398;11.754;2024-01-11T11:08:09;97612.94;;;-3.69;nan
60479;BME280;46321;48.398;11.754;2024-01-11T11:10:34;97621.81;;;-3.52;nan
60479;BME280;46321;48.398;11.754;2024-01-11T11:13:01;97600.38;;;-3.33;nan
60479;BME280;46321;48.398;11.754;2024-01-11T11:15:28;97594.66;;;-3.41;nan
60479;BME280;46321;48.398;11.754;2024-01-11T11:17:54;97596.94;;;-3.56;nan
60479;BME280;46321;48.398;11.754;2024-01-11T11:20:20;97592.94;;;-3.20;nan
60479;BME280;46321;48.398;11.754;2024-01-11T11:23:03;97602.50;;;-3.20;nan
60479;BME280;46321;48.398;11.754;2024-01-11T11:25:29;97605.25;;;-3.25;nan
60479;BME280;46321;48.398;11.754;2024-01-11T11:27:55;97613.13;;;-3.06;nan
60479;BME280;46321;48.398;11.754;2024-01-11T11:30:20;97618.44;;;-3.09;nan
60479;BME280;46321;48.398;11.754;2024-01-11T11:32:46;97621.59;;;-3.23;nan
60479;BME280;46321;48.398;11.754;2024-01-11T11:35:11;97615.81;;;-3.30;nan
60479;BME280;46321;48.398;11.754;2024-01-11T11:37:37;97598.81;;;-3.37;nan
60479;BME280;46321;48.398;11.754;2024-01-11T11:40:04;97592.56;;;-2.88;nan
60479;BME280;46321;48.398;11.754;2024-01-11T11:42:31;97601.00;;;-2.83;nan
60479;BME280;46321;48.398;11.754;2024-01-11T11:44:56;97595.44;;;-2.12;nan
60479;BME280;46321;48.398;11.754;2024-01-11T11:47:23;97591.94;;;-1.92;nan
60479;BME280;46321;48.398;11.754;2024-01-11T11:50:09;97588.72;;;-1.78;nan
60479;BME280;46321;48.398;11.754;2024-01-11T11:52:39;97582.03;;;-2.22;nan
60479;BME280;46321;48.398;11.754;2024-01-11T11:55:07;97574.25;;;-2.03;nan
60479;BME280;46321;48.398;11.754;2024-01-11T11:57:33;97571.59;;;-2.01;nan
60479;BME280;46321;48.398;11.754;2024-01-11T11:59:59;97581.47;;;-1.90;nan
60479;BME280;46321;48.398;11.754;2024-01-11T12:02:26;97566.81;;;-1.72;nan
60479;BME280;46321;48.398;11.754;2024-01-11T12:04:52;97564.91;;;-1.49;nan
60479;BME280;46321;48.398;11.754;2024-01-11T12:07:17;97555.53;;;-1.34;nan
60479;BME280;46321;48.398;11.754;2024-01-11T12:09:43;97561.31;;;-1.46;nan
60479;BME280;46321;48.398;11.754;2024-01-11T12:12:09;97567.38;;;-1.65;nan
60479;BME280;46321;48.398;11.754;2024-01-11T12:14:35;97589.63;;;-1.59;nan
60479;BME280;46321;48.398;11.754;2024-01-11T12:17:00;97595.72;;;-1.61;nan
60479;BME280;46321;48.398;11.754;2024-01-11T12:19:26;97584.16;;;-1.73;nan
60479;BME280;46321;48.398;11.754;2024-01-11T12:21:51;97597.41;;;-1.98;nan
60479;BME280;46321;48.398;11.754;2024-01-11T12:24:17;97581.09;;;-2.21;nan
60479;BME280;46321;48.398;11.754;2024-01-11T12:26:45;97575.06;;;-2.41;nan
60479;BME280;46321;48.398;11.754;2024-01-11T12:29:13;97574.34;;;-2.45;nan
60479;BME280;46321;48.398;11.754;2024-01-11T12:31:38;97574.06;;;-2.38;nan
60479;BME280;46321;48.398;11.754;2024-01-11T12:34:03;97572.94;;;-2.33;nan
60479;BME280;46321;48.398;11.754;2024-01-11T12:36:30;97571.22;;;-2.32;nan
60479;BME280;46321;48.398;11.754;2024-01-11T12:38:57;97563.50;;;-2.34;nan
60479;BME280;46321;48.398;11.754;2024-01-11T12:41:23;97560.53;;;-2.45;nan
60479;BME280;46321;48.398;11.754;2024-01-11T12:43:49;97562.00;;;-2.39;nan
60479;BME280;46321;48.398;11.754;2024-01-11T12:46:15;97564.09;;;-2.48;nan
60479;BME280;46321;48.398;11.754;2024-01-11T12:48:41;97561.31;;;-2.43;nan
60479;BME280;46321;48.398;11.754;2024-01-11T12:51:06;97569.69;;;-2.57;nan
60479;BME280;46321;48.398;11.754;2024-01-11T12:53:32;97569.34;;;-2.49;nan
60479;BME280;46321;48.398;11.754;2024-01-11T12:56:07;97571.09;;;-2.50;nan
60479;BME280;46321;48.398;11.754;2024-01-11T12:58:35;97561.00;;;-2.56;nan
60479;BME280;46321;48.398;11.754;2024-01-11T13:01:01;97561.84;;;-2.56;nan
60479;BME280;46321;48.398;11.754;2024-01-11T13:03:27;97565.03;;;-2.70;nan
60479;BME280;46321;48.398;11.754;2024-01-11T13:05:53;97563.97;;;-2.66;nan